Oyhat, Washington
Current Conditions -  °F | °C
As of 7:53 AM on Friday 19 Dec 2014 (Local Time) from KHQM Reporting Station
Few Clouds Few Clouds  
Wind Chill:   Ceiling: Unl
Heat Index:   Visibility: 8mi
Dew Point:   Wind: 7mph
Humidity: 93%   Direction: 90°E
Pressure: 29.87"   Gusts: NA
Location:  47.0202°N, 123.878°W
Report Text: KHQM 191553Z AUTO 09006KT 8SM FEW028 FEW055 08/07 A2987 RMK AO2 SLP117 T00780067
Loading
Personal Weather Stations






























Interactive Weather Map New forecast layout! Learn more

10-Day Weather Forecast

Advertisements
Track Severe Weather on mobile